עמוד ראשי
METAR-TAF:

METAR-TAF

שדות תעופה :

Russian Mission, אלסקה, ארצות הברית

קו רוחב: 61-46-30N, קו אורך: 161-19-10W, גובה: 16מטר

תצפית מזג אוויר נוכחית

הדו"ח נערך לפני 22דקות, בשעה 09:56 UTC
רוח 3קשר מכיוון מערב
טמפרטורת 12 צלסיוס
לחות 100%
לחץ 1014 hPa
ראות: 16.1קילומטר
מעונן בגובה 6000רגל

METAR: PARS 210956Z AUTO 28003KT 10SM OVC060 12/12 A2994 RMK AO2 RAE44 SLP141 P0000 T01220122 $

זמן: 02:18 (10:18 UTC)


TAF: חסר

תצפיות ותחזיות מזג אוויר לגבי יותר מ- 4,000 שדות תעופה ברחבי העולם. דוחות METAR ו- TAF.

התחנות הזמינות מסומנות בנקודות צהובות ואדומות על גבי המפה.

העבר את העכבר לנקודה הצבעונית על מנת לראות את שם התחנה.

לאחר מכן, לחץ כדי לראות את תוכן ואת תחזיות מזג האוויר.

כדי לשנות את המפה: לחץ על הכפתורים הירוקים עם הפלוס השחור כדי להתקרב; על הכפתור הירוק עם המקף כדי להתרחק; או בחיצים הירוקים למפות סמוכות.


METAR-TAF: